x

8452944 - Conimicut Light, Ri (cptr1) Weather Station

7:30 - Sun 28th Dec 2014 All times are EST. -5 hours from GMT.

  • Wind
    11mph, 15mph gusts
  • Sea Temp 45°f
  • Luft Temp 45°f
  • Sea Pressure 1013.6mb
  • 8452944 - Conimicut Light, Ri
  • 8452944 - Conimicut Light, Ri

More Historic Weather Station data

Upgrade to MSW Pro to gain access to the past 30 days of data for over 8000 Wavebouys and Weather Stations around the globe.

Join Pro

Comparision Forecast

View Surf forecast
   
So 12/28 7:30 11 15 mph 1013.6mb 45f 45f
7:24 11 15 mph 1013.5mb 45f 45f
7:18 13 17 mph 1013.5mb 45f 45f
7:12 14 17 mph 1013.7mb 45f 45f
7:06 11 17 mph 1013.5mb 45f 45f
7:00 16 20 mph 1013.6mb 45f 46f
6:54 16 23 mph 1013.3mb 45f 46f
6:48 18 22 mph 1013.2mb 45f 46f
6:42 20 23 mph 1013.1mb 45f 46f
6:36 18 22 mph 1012.9mb 45f 46f
6:30 17 24 mph 1012.8mb 45f 46f
6:24 21 22 mph 1012.9mb 45f 46f
6:18 17 21 mph 1012.8mb 45f 46f
6:12 22 25 mph 1012.7mb 45f 46f
6:06 21 23 mph 1012.7mb 45f 46f
6:00 18 25 mph 1012.4mb 45f 46f
5:54 22 26 mph 1012.3mb 45f 47f
5:48 17 21 mph 1012.5mb 45f 47f
5:42 20 21 mph 1012.3mb 45f 47f
5:36 18 21 mph 1012mb 45f 47f
5:30 17 22 mph 1012mb 45f 47f
5:24 17 22 mph 1012mb 45f 47f
5:18 20 22 mph 1011.8mb 45f 47f
5:12 16 24 mph 1011.5mb 45f 47f
5:06 21 23 mph 1011.4mb 45f 47f
5:00 21 25 mph 1011.3mb 45f 48f
4:54 18 20 mph 1011.2mb 45f 48f
4:48 11 14 mph 1011.2mb 45f 48f
4:42 9 11 mph 1011.3mb 45f 48f
4:36 10 13 mph 1011.1mb 45f 48f
4:30 11 14 mph 1011.1mb 45f 49f
4:24 13 15 mph 1010.8mb 45f 49f
4:18 15 18 mph 1010.7mb 45f 49f
4:12 17 20 mph 1010.8mb 45f 49f
4:06 18 22 mph 1010.5mb 45f 49f
4:00 17 23 mph 1010.5mb 45f 49f
3:54 18 23 mph 1010.4mb 45f 49f
3:48 20 22 mph 1010.4mb 45f 49f
3:42 18 22 mph 1010.2mb 45f 50f
3:36 20 22 mph 1010.2mb 45f 50f
3:30 22 24 mph 1010.4mb 45f 50f
3:24 17 21 mph 1010.2mb 45f 50f
3:18 17 23 mph 1010.1mb 45f 50f
3:12 20 25 mph 1010.1mb 45f 50f
3:06 22 25 mph 1010.1mb 45f 50f
3:00 15 20 mph 1010.1mb 45f 50f
2:54 10 17 mph 1010.1mb 45f 50f
2:48 10 13 mph 1010.2mb 45f 50f
2:42 10 11 mph 1010mb 45f 50f
2:36 11 13 mph 1009.9mb 45f 50f
2:30 11 14 mph 1010mb 45f 50f
2:24 11 15 mph 1010.1mb 45f 50f
2:18 13 15 mph 1010.2mb 45f 50f
2:12 13 15 mph 1009.8mb 45f 50f
2:06 14 15 mph 1009.7mb 45f 50f
2:00 13 17 mph 1009.8mb 45f 49f
1:54 11 16 mph 1010.1mb 45f 50f
1:48 11 16 mph 1009.9mb 45f 50f
1:42 13 15 mph 1009.8mb 45f 50f
1:36 11 13 mph 1009.6mb 45f 50f
1:30 9 11 mph 1009.3mb 45f 49f
1:24 9 14 mph 1009mb 45f 49f
1:18 11 16 mph 1009.3mb 45f 49f
1:12 11 15 mph 1009.4mb 45f 49f
1:06 11 17 mph 1009.7mb 45f 49f
1:00 14 16 mph 1009.9mb 45f 49f
12:54 11 14 mph 1009.4mb 45f 49f
12:48 9 13 mph 1009.1mb 45f 48f
12:42 11 14 mph 1008.9mb 45f 48f
12:36 14 16 mph 1008.9mb 45f 48f
12:30 13 18 mph 1009mb 45f 48f
12:24 14 16 mph 1008.9mb 45f 48f
12:18 11 16 mph 1008.8mb 45f 48f
12:12 13 16 mph 1008.7mb 45f 48f
12:06 10 14 mph 1008.5mb 45f 48f
12:00 11 13 mph 1008.7mb 45f 48f
11:54 13 15 mph 1008.8mb 45f 48f
11:48 13 16 mph 1009.4mb 45f 48f
11:42 15 18 mph 1009.1mb 45f 48f
11:36 16 20 mph 1009.7mb 45f 48f
11:30 13 16 mph 1009.8mb 45f 48f
11:24 10 16 mph 1009.5mb 45f 48f
11:18 13 15 mph 1009.6mb 45f 48f
11:12 14 16 mph 1009.7mb 45f 48f
11:06 13 16 mph 1009.6mb 45f 47f
11:00 10 11 mph 1009.8mb 45f 47f
10:54 9 11 mph 1009.8mb 45f 47f
10:48 9 10 mph 1010.1mb 45f 47f
10:42 8 10 mph 1010.2mb 45f 46f
10:36 10 11 mph 1010.4mb 45f 46f
10:30 11 13 mph 1010mb 45f 46f
10:24 13 15 mph 1009.9mb 45f 46f
10:18 14 15 mph 1009.9mb 45f 46f
10:12 13 15 mph 1010mb 45f 46f
10:06 13 14 mph 1010.2mb 45f 46f
10:00 11 13 mph 1010.5mb 45f 46f
9:54 11 15 mph 1010.5mb 45f 46f
9:48 13 15 mph 1010.6mb 45f 46f
9:42 11 14 mph 1010.6mb 45f 47f
9:36 10 14 mph 1010.5mb 45f 47f
9:30 13 15 mph 1010.8mb 45f 47f
9:24 13 14 mph 1011.1mb 45f 47f
9:18 10 13 mph 1011.1mb 45f 47f
9:12 10 13 mph 1011.2mb 45f 47f
9:06 8 9 mph 1011.2mb 45f 47f
9:00 7 9 mph 1011.3mb 45f 47f
8:54 9 11 mph 1011.5mb 45f 47f
8:48 11 14 mph 1011.1mb 45f 48f
8:42 11 14 mph 1011.1mb 45f 48f
8:36 10 14 mph 1011.1mb 45f 48f
8:30 10 11 mph 1011.2mb 45f 48f
8:24 7 10 mph 1011.3mb 45f 47f
8:18 9 11 mph 1011.7mb 45f 47f
8:12 8 9 mph 1011.9mb 45f 47f
8:06 8
mph
1011.6mb 45f 47f
8:00 7 8 mph 1011.5mb 45f 47f
7:54 6 7 mph 1011.7mb 45f 47f
7:48 7 9 mph 1011.7mb 45f 47f
7:42 8 14 mph 1011.4mb 45f 47f
7:36 10 15 mph 1011.6mb 45f 47f
7:30 14 16 mph 1011.5mb 45f 47f
7:24 16 17 mph 1011.4mb 45f 47f
7:18 17
mph
1011.3mb 45f 47f
7:12 16 17 mph 1011.1mb 45f 47f
7:06 14 15 mph 1011.1mb 45f 47f
7:00 11 14 mph 1011.3mb 45f 47f
6:54 11 14 mph 1011.7mb 45f 47f
6:48 13 15 mph 1011.9mb 45f 47f
6:42 14 17 mph 1011.8mb 44f 47f
6:36 15 17 mph 1011.7mb 44f 47f
6:30 14 16 mph 1011.6mb 44f 47f
6:24 14 17 mph 1011.5mb 44f 47f
6:18 15 17 mph 1011.5mb 44f 47f
6:12 14 16 mph 1011.5mb 44f 47f
6:06 14 18 mph 1011.4mb 44f 47f
6:00 15 17 mph 1011.3mb 44f 47f
5:54 15 17 mph 1011.4mb 44f 46f
5:48 16 20 mph 1011.6mb 44f 47f
5:36 15 17 mph 1011.4mb 44f 46f
5:30 14 20 mph 1011.5mb 44f 46f
5:18 16 18 mph 1011.9mb 44f 46f
5:12 16 18 mph 1012.1mb 44f 46f
5:06 14 15 mph 1012mb 44f 46f
5:00 11 14 mph 1012mb 44f 45f
4:54 10 11 mph 1012mb 44f 45f
4:48 10 11 mph 1012.3mb 45f 45f
4:42 8 11 mph 1012.4mb 45f 45f
4:36 9 10 mph 1012.6mb 45f 45f
4:30 8 9 mph 1012.5mb 45f 44f
4:24 9 10 mph 1012.5mb 45f 45f
4:18 9 11 mph 1012.3mb 45f 44f
4:12 10 11 mph 1012.3mb 45f 44f
4:06 11 14 mph 1012.5mb 45f 44f
4:00 13 16 mph 1012.7mb 45f 44f
3:54 13 14 mph 1012.7mb 45f 44f
3:48 13 14 mph 1012.9mb 45f 44f
3:42 10 11 mph 1013.2mb 45f 44f
3:36 10 13 mph 1013.3mb 45f 44f
3:30 10 13 mph 1013.5mb 45f 44f
3:24 11 14 mph 1013.6mb 45f 44f
3:18 13 15 mph 1013.6mb 45f 44f
3:12 14 16 mph 1013.8mb 45f 44f
3:06 14 18 mph 1014mb 45f 44f
3:00 14 20 mph 1014.1mb 45f 44f
2:54 16 20 mph 1014.1mb 45f 44f
2:48 16 18 mph 1013.7mb 45f 43f
2:42 14
mph
1014mb 45f 43f
2:36 13 15 mph 1014.5mb 45f 43f
2:30 13 15 mph 1014.5mb 45f 43f
2:24 14 17 mph 1014.4mb 45f 43f
2:18 15 16 mph 1014.6mb 45f 43f
2:12 15 16 mph 1015mb 45f 43f
2:06 15 16 mph 1015.2mb 45f 43f
2:00 14 16 mph 1015.5mb 45f 43f
1:54 14 16 mph 1015.6mb 45f 43f
1:48 14 17 mph - - -
1:42 15 17 mph 1015.7mb 45f 43f
1:36 14 16 mph 1015.8mb 45f 43f
1:30 15 16 mph 1015.7mb 45f 43f
1:24 15 17 mph 1015.8mb 45f 43f
1:18 14 16 mph 1016mb 45f 43f
1:12 14 15 mph 1016mb 45f 43f
1:06 14 16 mph 1016.3mb 45f 42f
1:00 15 16 mph 1016.7mb 45f 42f
12:54 16 18 mph 1016.7mb 45f 42f
12:48 14 16 mph 1016.8mb 45f 42f
12:42 15 16 mph 1016.8mb 45f 42f
12:36 15 16 mph 1016.9mb 45f 42f
12:30 15 16 mph 1016.9mb 45f 42f
12:24 14 16 mph 1017.1mb 45f 42f
12:18 14 15 mph 1017.3mb 45f 42f
12:12 14
mph
1017.6mb 45f 42f
12:06 11 13 mph 1017.9mb 45f 42f
12:00 10 11 mph 1017.9mb 45f 42f
Sa 12/27 11:54 9 10 mph 1017.9mb 45f 42f
11:48  -  mph - - 42f
11:42  -  mph - - 42f
11:36  -  mph - - 42f
11:30 7 9 mph 1018.5mb 45f 42f
11:24 9 11 mph 1018.6mb 45f 42f
11:18 9 10 mph 1018.6mb 45f 42f
11:06 8 9 mph 1018.5mb 45f 42f
11:00 8 9 mph 1018.8mb 45f 42f
10:54 8 9 mph 1018.9mb 45f 42f
10:48 8 9 mph 1018.8mb 45f 43f
10:42 8 9 mph 1019.1mb 45f 43f
10:36 8
mph
1019.2mb 45f 43f
10:30 8
mph
1019.3mb 45f 43f
10:24 8 9 mph 1019.5mb 45f 43f
10:18 8 9 mph 1019.7mb 45f 43f
10:12 8
mph
1019.7mb 45f 43f
10:06 8
mph
1019.7mb 45f 43f
10:00 6 7 mph 1019.6mb 45f 43f
9:54 6 7 mph 1019.7mb 45f 43f
9:48 6 7 mph 1020.1mb 45f 43f
9:42 6 7 mph 1020mb 45f 43f
9:36 6 7 mph 1020.2mb 45f 43f
9:30 7
mph
1020.1mb 45f 44f
9:24 5 6 mph 1020.1mb 45f 44f
9:18 5 6 mph 1020mb 45f 44f
9:12 5 6 mph 1020mb 45f 44f
9:06 6 7 mph 1020.1mb 45f 44f
9:00 6 8 mph 1020.3mb 45f 44f
8:54 7 8 mph 1020.2mb 45f 44f
8:48 7 9 mph 1020.2mb 45f 44f
8:42 7 9 mph 1020.4mb 45f 44f
8:36 7 10 mph 1020.5mb 45f 44f
8:30 9
mph
1020.6mb 45f 44f
8:24 9
mph
1020.6mb 45f 44f
8:18 9 10 mph 1020.7mb 45f 44f
8:12 9 10 mph 1020.7mb 45f 44f
8:06 9 11 mph 1020.6mb 45f 44f
8:00 11 13 mph 1020.9mb 45f 44f
7:54 10 11 mph 1020.9mb 45f 44f
7:48 8 9 mph 1020.9mb 45f 44f
7:42 9 10 mph 1020.8mb 45f 44f
7:36 9 11 mph 1020.8mb 45f 45f
7:30 10 13 mph 1020.7mb 45f 45f
7:24 8 10 mph 1020.7mb 45f 45f
7:18 9 11 mph 1020.8mb 45f 45f
7:12 10 11 mph 1020.8mb 45f 45f
7:06 11 14 mph 1020.9mb 45f 45f
7:00 11 14 mph 1020.9mb 45f 45f
6:54 11 14 mph 1021mb 45f 45f
6:48 11 14 mph 1021mb 45f 46f
6:42 13 15 mph 1020.9mb 45f 46f
6:36 11 14 mph 1021mb 45f 46f
6:30 14 16 mph 1021mb 45f 46f
6:24 13 15 mph 1020.9mb 45f 46f
6:18 13 15 mph 1021.1mb 45f 46f
6:12 14
mph
1021.1mb 45f 46f
6:06 13 15 mph 1021.1mb 45f 46f
6:00 14 17 mph 1021.2mb 45f 47f
5:54 14 15 mph 1021.1mb 45f 47f
5:48 13 15 mph 1021mb 45f 47f
5:42 13 15 mph 1021mb 45f 47f
5:36 13 15 mph 1021mb 45f 47f
5:30 15 16 mph 1021.2mb 45f 48f
5:24 14 15 mph 1021.2mb 45f 48f
5:18 13 14 mph 1021.2mb 45f 48f
5:12 6
mph
1021.2mb 45f 50f
5:06 5 6 mph 1021mb 45f 50f
5:00 5 6 mph 1021mb 45f 50f
4:54 5
mph
1020.9mb 45f 50f
4:48 3 5 mph 1020.8mb 45f 50f
4:42 5
mph
1020.7mb 45f 50f
4:36 5 6 mph 1020.6mb 45f 50f
4:30 6 7 mph 1020.7mb 45f 50f
4:24 6 7 mph 1020.7mb 45f 51f
4:18 6 8 mph 1020.6mb 45f 51f
4:12 8 9 mph 1020.6mb 45f 51f
4:06 7 9 mph 1020.8mb 45f 51f
4:00 8 10 mph 1020.7mb 45f 51f
3:54 7 13 mph 1020.8mb 45f 51f
3:48 7 10 mph 1020.8mb 45f 51f
3:42 7 9 mph 1020.8mb 45f 52f
3:36 10 13 mph 1020.8mb 45f 51f
3:30 9 13 mph 1020.8mb 45f 52f
3:24 9 13 mph 1020.8mb 45f 52f
3:18 14 15 mph 1020.9mb 45f 52f
3:12 9 15 mph 1021mb 45f 52f
3:06 13 15 mph 1021.1mb 45f 51f
3:00 9 11 mph 1021mb 45f 52f
2:54 11 14 mph 1021mb 45f 52f
2:48 11 14 mph 1021.1mb 45f 52f
2:42 14 15 mph 1021.1mb 45f 51f
2:36 11 14 mph 1020.9mb 44f 52f
2:30 11 16 mph 1020.8mb 44f 51f
2:24 10 15 mph 1020.9mb 44f 51f
2:18 7 11 mph 1020.7mb 44f 50f
2:12 8 10 mph 1020.7mb 44f 49f
2:06 9 11 mph 1020.7mb 44f 49f
2:00 10 11 mph 1020.7mb 44f 49f
1:54 10 11 mph 1020.7mb 44f 49f
1:48 8 11 mph 1020.8mb 44f 49f
1:42 8 9 mph 1020.8mb 44f 49f
1:36 5 8 mph 1021mb 44f 50f
1:30  -  5 mph 1021mb 45f 53f
1:24 2 8 mph 1020.9mb 45f 51f
1:18 6 7 mph 1021mb 45f 49f
1:12 1 3 mph 1021.1mb 45f 49f
1:06 2 5 mph 1021.2mb 44f 49f
1:00 2 5 mph 1021.2mb 44f 49f
12:54  -  3 mph 1021.5mb 44f 49f
12:48 3 6 mph 1021.3mb 44f 48f
12:42 5 6 mph 1021.5mb 44f 48f
12:36 5
mph
1021.7mb 44f 47f
12:30 5 8 mph 1021.7mb 44f 47f
12:24 5 7 mph 1021.7mb 44f 47f
12:18 6
mph
1021.8mb 44f 47f
12:12 6
mph
1021.9mb 44f 46f
12:06 6 7 mph 1022mb 44f 46f
12:00 5 6 mph 1022.1mb 44f 46f
11:54 5 6 mph 1022mb 44f 46f
11:48  -  mph - - 48f
11:42  -  mph - - 49f
11:36  -  mph - - 47f
11:30 5
mph
1022.3mb 44f 46f
11:24 3
mph
1022.4mb 44f 46f
11:18 3
mph
1022.5mb 44f 46f
11:12 2 3 mph 1022.7mb 44f 46f
11:06 3 5 mph 1022.7mb 44f 46f
11:00 3 5 mph 1022.9mb 44f 46f
10:54 3 5 mph 1023.1mb 44f 45f
10:48 3
mph
1023.2mb 44f 45f
10:42 3
mph
1023.3mb 44f 45f
10:36 3 5 mph 1023.4mb 44f 44f
10:30 3 5 mph 1023.5mb 44f 44f
10:18  -  2 mph 1023.7mb 44f 44f
10:12  -  2 mph 1023.7mb 44f 45f
10:06 1 2 mph 1023.8mb 44f 46f
10:00 1 2 mph 1023.9mb 45f 49f
9:54  -  2 mph 1023.9mb 45f 47f
9:48 3 5 mph 1024mb 45f 44f
9:42 3 5 mph 1023.9mb 45f 44f
9:36 3 6 mph 1023.9mb 45f 44f
9:30 2
mph
1023.8mb 45f 47f
9:24 2 3 mph 1023.7mb 45f 45f
9:18 2 3 mph 1023.6mb 45f 43f
9:12 3 5 mph 1023.6mb 45f 42f
9:06 2
mph
1023.6mb 45f 44f
9:00 2 3 mph 1023.6mb 45f 44f
8:54 3 7 mph 1023.5mb 45f 42f
8:48 6 8 mph 1023.4mb 45f 41f
8:42 6 8 mph 1023.5mb 45f 40f
8:36 6 8 mph 1023.4mb 45f 40f
8:30 7 8 mph 1023.3mb 45f 40f
8:24 7 8 mph 1023.3mb 45f 39f
8:18 7 8 mph 1023.3mb 45f 39f
8:12 5 6 mph 1023.2mb 45f 39f
8:06 5 7 mph 1023.3mb 45f 38f
8:00 3 6 mph 1023.2mb 44f 38f
7:54 6 8 mph 1023.2mb 44f 37f
7:48 7 8 mph 1023.1mb 44f 37f
7:42 5 6 mph 1023mb 44f 37f
7:36 6
mph
1022.9mb 44f 37f
7:30 5
mph
1022.9mb 44f 37f
7:24 3 5 mph 1023mb 44f 37f
7:18 5
mph
1023mb 44f 37f
7:12 3 5 mph 1022.8mb 44f 37f
7:06 2 3 mph 1022.7mb 44f 37f
7:00 2 3 mph 1022.7mb 44f 37f
6:54 2 3 mph 1022.5mb 44f 37f
6:48 2
mph
1022.4mb 44f 37f
6:42  -  mph 1022.3mb 44f 37f
6:36  -  mph 1022.2mb 44f 37f
6:30  -  2 mph 1022.2mb 44f 37f
6:24 2 3 mph 1022.2mb 44f 37f
6:18 3 5 mph 1022.3mb 44f 37f
6:12 3 5 mph 1022.3mb 44f 37f
6:06 3
mph
1022.1mb 44f 37f
6:00 3 5 mph 1022mb 44f 38f
5:54 5 6 mph 1021.9mb 44f 39f
5:48 5 6 mph 1021.7mb 44f 39f
5:42 6 7 mph 1021.7mb 44f 39f
5:36 6 7 mph 1021.7mb 44f 39f
5:30 5 6 mph 1021.7mb 43f 39f
5:24 6
mph
1021.5mb 43f 39f
5:18 5 6 mph 1021.4mb 43f 39f
5:12 5 6 mph 1021.6mb 43f 39f
5:06 6 7 mph 1021.7mb 43f 39f
5:00 6
mph
1021.6mb 43f 39f
4:54 6 7 mph 1021.6mb 43f 39f
4:48 7 8 mph 1021.8mb 43f 39f
4:42 7 8 mph 1021.7mb 43f 39f
4:36 7 8 mph 1021.7mb 43f 39f
4:30 7
mph
1021.6mb 43f 38f
4:24 6
mph
1021.2mb 43f 38f
4:18 6 7 mph 1021.3mb 43f 38f
4:12 6
mph
1021.1mb 43f 38f
4:06 6
mph
1020.9mb 43f 38f
4:00 6 7 mph 1020.9mb 43f 38f
3:54 6 7 mph 1021.1mb 42f 38f
3:48 6 7 mph 1021mb 42f 38f
3:42 6
mph
1020.9mb 42f 38f
3:36 6 9 mph 1021mb 42f 40f
3:30 7 8 mph 1021mb 42f 40f
3:24 7
mph
1021.2mb 42f 39f
3:18 7
mph
1021.2mb 43f 39f
3:12 7
mph
1021.4mb 43f 38f
3:06 7
mph
1021.6mb 43f 38f
3:00 6 7 mph 1021.6mb 43f 38f
2:54 5 6 mph 1021.6mb 43f 38f
2:48 5 6 mph 1021.6mb 44f 39f
2:42 5 6 mph 1021.5mb 44f 39f
2:36 6
mph
1021.4mb 44f 39f
2:30 5
mph
1021.3mb 44f 40f
2:24 3 5 mph 1021.3mb 44f 39f
2:18 2 3 mph 1021.3mb 44f 39f
2:12 3 5 mph 1021.3mb 44f 40f
2:06 5 6 mph 1021.2mb 44f 40f
2:00 3 6 mph 1021mb 44f 40f
1:54 3 5 mph 1021mb 44f 40f
1:48 5 8 mph 1021mb 44f 40f
1:42 6
mph
1021mb 44f 40f
1:36 5 6 mph 1020.9mb 45f 41f
1:30 5 6 mph 1020.7mb 45f 41f
1:24 5 7 mph 1020.7mb 45f 41f
1:18 5 6 mph 1020.6mb 45f 41f
1:12 3 5 mph 1020.6mb 45f 41f
1:06 5 6 mph 1020.5mb 45f 41f
1:00 3 6 mph 1020.5mb 45f 41f
12:54 3 5 mph 1020.6mb 45f 41f
12:48 3 6 mph 1020.6mb 45f 41f
12:42 3 7 mph 1020.6mb 45f 42f
12:36 5 6 mph 1020.7mb 45f 42f
12:30 3 8 mph 1020.7mb 45f 42f
12:24 3 6 mph 1020.7mb 45f 42f
12:18 5 7 mph 1020.7mb 45f 42f
12:12 5 6 mph 1020.7mb 45f 41f
12:06 5 7 mph 1020.8mb 45f 41f
12:00 2 6 mph 1021mb 45f 41f
Fr 12/26 11:54 5 7 mph 1021.2mb 45f 42f
11:48 6 7 mph 1021.2mb 45f 41f
11:42 5 6 mph 1021.2mb 45f 41f
11:36 6 8 mph 1021.3mb 45f 41f
11:30 6 8 mph 1021.5mb 45f 42f
11:24 8 9 mph 1021.5mb 45f 42f
11:18 8 10 mph 1021.7mb 45f 41f
11:12 8 9 mph 1021.7mb 45f 41f
11:06 6
mph
1021.7mb 45f 41f
10:54 5 6 mph 1021.9mb 45f 41f
10:48 5 6 mph 1021.8mb 45f 41f
10:42 6 7 mph 1022mb 45f 41f
10:36 6 7 mph 1021.9mb 45f 41f
10:30 5 6 mph 1022mb 45f 40f
10:24 6 7 mph 1022mb 45f 41f
10:18 5
mph
1022mb 45f 41f
10:12 5 6 mph 1021.8mb 45f 41f
10:06 6
mph
1021.8mb 45f 41f
10:00 6 7 mph 1021.9mb 45f 41f
9:54 7 8 mph 1021.9mb 45f 41f
9:48 7 8 mph 1021.8mb 45f 41f
9:42 7 8 mph 1021.7mb 45f 41f
9:36 7 8 mph 1021.7mb 45f 41f
9:30 7 8 mph 1021.8mb 45f 41f
9:24 7 8 mph 1021.8mb 45f 41f
9:18 7 8 mph 1021.8mb 45f 41f
9:12 8 9 mph 1021.8mb 45f 42f
9:06 8 9 mph 1021.7mb 45f 42f
9:00 8 9 mph 1021.7mb 45f 42f
8:54 8 9 mph 1021.7mb 45f 42f
8:48 8
mph
- 45f 42f
8:42 8 9 mph - 45f 42f
8:36 9 11 mph - 45f 42f
8:30 11
mph
1021.8mb 45f 42f
8:24 10 11 mph 1021.9mb 45f 42f
8:18 10
mph
1021.8mb 45f 42f
8:12 9
mph
1021.7mb 45f 43f
8:06 8 9 mph 1021.7mb 45f 43f
8:00 8 9 mph 1021.6mb 45f 43f
7:54 7 8 mph 1021.7mb 45f 43f
7:48 6
mph
1021.7mb 45f 43f
7:42 6 7 mph 1021.7mb 45f 44f
7:36 7
mph
1021.6mb 45f 44f
7:30 6 7 mph 1021.6mb 45f 44f
7:24 6 7 mph 1021.7mb 45f 44f
7:18 7
mph
1021.8mb 45f 44f
7:12 6 7 mph 1021.8mb 45f 44f
7:06 5 6 mph 1021.8mb 45f 44f
7:00 5 6 mph 1021.8mb 45f 43f
6:54 6 7 mph 1021.9mb 45f 44f
6:48 6 7 mph 1021.8mb 45f 44f
6:42 7
mph
1021.9mb 45f 44f
6:36 7 9 mph 1022mb 45f 44f
6:30 8
mph
1021.9mb 45f 44f
6:24 8 9 mph 1021.8mb 45f 44f
6:18 9 10 mph 1021.7mb 45f 44f
6:12 10 11 mph 1021.6mb 45f 45f
6:06 10 11 mph 1021.5mb 45f 45f
6:00 9 10 mph 1021.4mb 45f 45f
5:54 8 9 mph 1021.2mb 45f 45f
5:48 8 10 mph 1021mb 45f 45f
5:42 9 10 mph 1021mb 45f 45f
5:36 9 10 mph 1020.9mb 45f 46f
5:30 8 9 mph 1020.9mb 45f 46f
5:24 7
mph
1020.8mb 45f 46f
5:18 7 8 mph 1020.8mb 45f 46f
5:12 7 8 mph 1020.9mb 45f 46f
5:06 8 10 mph 1020.8mb 45f 46f
5:00 8 10 mph 1020.8mb 45f 46f
4:54 8 9 mph 1020.7mb 45f 47f
4:48 8 10 mph 1020.5mb 45f 47f
4:42 7 9 mph 1020.3mb 45f 47f
4:36 7
mph
1020.3mb 45f 47f
4:30 7
mph
1020.3mb 45f 47f
4:24 7 9 mph 1020.2mb 45f 47f
4:18 9 10 mph 1020.2mb 45f 47f
4:12 10 11 mph 1020.2mb 45f 48f
4:06 9 11 mph 1020.3mb 45f 48f
4:00 11
mph
1020.3mb 45f 48f
3:54 11 13 mph 1020.3mb 45f 48f
3:48  -  mph 1020.4mb 45f 49f
3:42  -  mph 1020.4mb 45f 48f
3:36  -  mph 1020.5mb 45f 49f
3:30 10 14 mph 1020.4mb 45f 49f
3:24 13 15 mph 1020.5mb 45f 49f
3:18 8 10 mph 1020.4mb 45f 49f
3:12 9 13 mph 1020.3mb 45f 49f
3:06 8 9 mph 1020.3mb 45f 49f
3:00 8 11 mph 1020.2mb 45f 49f
2:54 11 15 mph 1020.2mb 45f 48f
2:48 11 14 mph 1020.2mb 45f 48f
2:42 10 13 mph 1020.2mb 45f 48f
2:36 11 14 mph 1020.1mb 45f 48f
2:30 11 13 mph 1020mb 45f 48f
2:24 11 15 mph 1019.9mb 45f 48f
2:18 10 14 mph 1019.8mb 45f 48f
2:12 9 15 mph 1019.8mb 45f 48f
2:06 14 15 mph 1019.8mb 45f 48f
2:00 13 15 mph 1020mb 45f 48f
1:54 14 17 mph 1020.1mb 45f 47f
1:48 14 18 mph 1020mb 45f 48f
1:42 15 17 mph 1020mb 45f 47f
1:36 15 20 mph 1020.1mb 45f 47f
1:30 16 18 mph 1020.4mb 45f 47f
1:24 17 20 mph 1020.5mb 45f 47f
1:12 14 20 mph 1020.5mb 45f 47f
1:06 17 21 mph 1020.4mb 45f 47f
1:00 17 22 mph 1020.5mb 45f 47f
12:54 14 18 mph 1020.5mb 45f 47f
12:48 17 18 mph 1020.5mb 45f 46f
12:42 14 18 mph 1020.3mb 45f 46f
12:36 15 20 mph 1020.4mb 45f 46f
12:30 17 20 mph 1020.5mb 45f 46f
12:24 18 21 mph 1020.5mb 45f 46f
12:18 17 22 mph 1020.7mb 45f 46f
12:12 20 23 mph 1020.7mb 45f 46f
12:06 14 20 mph 1020.9mb 45f 46f
12:00 16 18 mph 1021.1mb 45f 46f
11:54 16 22 mph 1020.9mb 45f 45f
11:48 20 22 mph 1021mb 45f 45f
11:42 18 22 mph 1021.2mb 45f 45f
11:36 20 23 mph 1021.2mb 45f 45f
11:30 18 21 mph 1021.2mb 45f 45f
11:24 16 21 mph 1021.2mb 45f 45f
11:18 16 17 mph 1021.3mb 45f 44f
11:12 14 21 mph 1021.4mb 45f 44f
11:06 15 20 mph 1021.5mb 45f 44f
11:00 17 22 mph 1021.6mb 45f 44f
10:54 17 22 mph 1021.8mb 45f 44f
10:48 17 21 mph 1021.9mb 45f 44f
10:42 14 20 mph 1021.9mb 45f 44f
10:36 15 20 mph 1022.1mb 45f 44f
10:30 17 21 mph 1022.3mb 45f 44f
10:24 13 15 mph 1022.3mb 45f 44f
10:18 14 20 mph 1022.3mb 44f 44f
10:12 16 18 mph 1022.5mb 44f 44f
10:06 16 18 mph 1022.4mb 44f 44f
10:00 13 16 mph 1022.4mb 44f 44f
9:54 10 14 mph 1022.4mb 44f 43f
9:48 11 15 mph 1022.4mb 44f 43f
9:42 13 17 mph 1022.4mb 44f 43f
9:36 13 15 mph 1022.5mb 44f 43f
9:30 11 15 mph 1022.5mb 44f 43f
9:24 11 13 mph 1022.5mb 44f 42f
9:18 10 14 mph 1022.3mb 44f 42f
9:12 11 15 mph 1022.3mb 44f 42f
9:06 13 15 mph 1022.1mb 44f 42f
9:00 9 13 mph 1022mb 44f 41f
8:54 9 10 mph 1022.1mb 44f 41f
8:48 10 11 mph 1022.1mb 44f 40f
8:42 10 13 mph 1022mb 44f 40f
8:36 11 13 mph 1022mb 45f 40f
8:30 11 13 mph 1022mb 45f 40f
8:24 11 14 mph 1021.9mb 45f 40f
8:18 13 14 mph 1022.1mb 45f 39f
8:12 11 14 mph 1022.1mb 45f 39f
8:06 13 15 mph 1021.9mb 45f 39f
8:00 13 14 mph 1021.6mb 45f 39f
7:54 14
mph
1021.5mb 45f 39f
7:48 13 15 mph 1021.5mb 45f 39f
7:42 13 14 mph 1021.6mb 45f 38f
7:36 13 15 mph 1021.5mb 45f 39f
7:30 13 14 mph 1021.4mb 45f 39f
7:24 11 14 mph 1021.1mb 45f 39f
7:18 10 13 mph 1021mb 45f 38f
7:12 9 13 mph 1021mb 45f 39f
7:06 10 13 mph 1021mb 45f 38f
7:00 10 13 mph 1020.9mb 45f 38f
6:54 11 14 mph 1020.8mb 45f 39f
6:48 11 14 mph 1020.8mb 45f 39f
6:42 11 13 mph 1020.6mb 45f 39f
6:36 13 14 mph 1020.5mb 45f 39f
6:30 13 14 mph 1020.4mb 45f 39f
6:24 13 15 mph 1020.3mb 45f 39f
6:18 13 14 mph 1020.2mb 45f 39f
6:12 13 15 mph 1020.2mb 45f 39f
6:06 14 15 mph 1020mb 45f 39f
6:00 13 15 mph 1019.8mb 45f 39f
5:54 13 14 mph 1019.7mb 45f 39f
5:48 11 13 mph 1019.5mb 45f 39f
5:42 10 11 mph 1019.4mb 45f 39f
5:36 10 13 mph 1019.4mb 45f 39f
5:30 10 13 mph 1019.5mb 45f 39f
5:24 11 14 mph 1019.6mb 45f 39f
5:18 11 13 mph 1019.5mb 45f 39f
5:12 11 13 mph 1019.4mb 45f 39f
5:06 10 13 mph 1019.4mb 45f 39f
5:00 11 13 mph 1019.5mb 45f 39f
4:54 10 11 mph 1019.3mb 45f 39f
4:48 11 13 mph 1019.4mb 45f 39f
4:42 11 14 mph 1019.4mb 45f 39f
4:36 14 15 mph 1019.3mb 45f 39f
4:30 13
mph
1019.4mb 45f 39f
4:24 11 13 mph 1019.3mb 45f 39f
4:18 11 14 mph 1019.2mb 45f 40f
4:12 11 14 mph 1019mb 45f 40f
4:06 13 14 mph 1018.8mb 45f 40f
4:00 13 14 mph 1018.6mb 45f 40f
3:54 11 13 mph 1018.6mb 45f 41f
3:48 10 11 mph 1018.5mb 45f 41f
3:42 10 11 mph 1018.5mb 45f 40f
3:36 9 11 mph 1018.4mb 45f 40f
3:30 10 13 mph 1018.4mb 45f 41f
3:24 11 13 mph 1018.4mb 45f 41f
3:18 10 13 mph 1018.3mb 45f 41f
3:12 10 11 mph 1018.2mb 45f 41f
3:06 10 11 mph 1018.3mb 45f 41f
3:00 9 10 mph 1018.2mb 45f 41f
2:54 8 9 mph 1018.2mb 45f 41f
2:48 8 9 mph 1018.2mb 45f 41f
2:42 8 10 mph 1018.2mb 45f 41f
2:36 10 11 mph 1018.2mb 45f 42f
2:30 9 10 mph 1018.1mb 45f 42f
2:24 10 11 mph 1018.1mb 45f 42f
2:18 10 11 mph 1018.2mb 45f 42f
2:12 9 11 mph 1018.2mb 45f 42f
2:06 10 14 mph 1018.2mb 45f 42f
2:00 8 10 mph 1018.2mb 45f 42f
1:54 9 10 mph 1018.2mb 45f 42f
1:48 9 10 mph 1018mb 45f 42f
1:42 8 10 mph 1017.8mb 45f 42f
1:36 9 10 mph 1017.8mb 45f 42f
1:30 6 8 mph 1017.7mb 45f 42f
1:24 6 8 mph 1017.6mb 45f 42f
1:18 6 8 mph 1017.4mb 45f 42f
1:12 6 8 mph 1017.4mb 45f 42f
1:06 7 9 mph 1017.3mb 45f 42f
1:00 8 9 mph 1017.1mb 45f 42f
12:54 7 11 mph 1016.9mb 45f 42f
12:48 8 11 mph 1016.8mb 45f 42f
12:42 10 15 mph 1016.8mb 45f 42f
12:36 8 11 mph 1016.7mb 45f 42f
12:30 9 10 mph 1016.6mb 45f 42f
12:24 10 13 mph 1016.6mb 45f 42f
12:18 10 11 mph 1016.5mb 45f 42f
12:12 9 10 mph 1016.4mb 45f 42f
12:06 9
mph
1016.3mb 45f 42f
12:00 9 10 mph 1016.1mb 45f 42f
Do 12/25 11:54 10 13 mph 1016mb 45f 42f
11:48 11 14 mph 1016.1mb 45f 43f
11:42 11 13 mph 1016mb 45f 42f
11:36 11 13 mph 1016mb 45f 43f
11:30 11 13 mph 1015.9mb 45f 43f
11:24 10 11 mph 1015.7mb 45f 43f
11:18 10 13 mph 1015.6mb 45f 43f
11:12 11 14 mph 1015.6mb 45f 44f
11:06 13 14 mph 1015.5mb 45f 44f
11:00 13 14 mph 1015.4mb 45f 44f
10:54 13 16 mph 1015.4mb 45f 44f
10:48 13 15 mph 1015.3mb 45f 44f
10:42 7 9 mph 1015.5mb 45f 45f
10:36 7 9 mph 1015.4mb 45f 46f
10:30 8 13 mph 1015.3mb 45f 46f
10:24 10 13 mph 1015.2mb 45f 46f
10:18 9 13 mph 1015.1mb 45f 46f
10:12 9 16 mph 1015.1mb 45f 46f
10:06 9 13 mph 1014.9mb 45f 46f
10:00 8 14 mph 1014.9mb 45f 46f
9:54 11 15 mph 1015mb 45f 46f
9:48 10 26 mph 1014.8mb 45f 46f
9:42 13 22 mph 1014.8mb 45f 46f
9:36 6 10 mph 1014.7mb 45f 46f
9:30 7 9 mph 1014.5mb 45f 45f
9:24 7 9 mph 1014.4mb 45f 46f
9:18 7 14 mph 1014.2mb 45f 46f
9:12 10 16 mph 1014.1mb 45f 46f
9:06 13 16 mph 1014mb 45f 46f
9:00 11 15 mph 1013.9mb 46f 46f
8:54 13 15 mph 1013.9mb 46f 46f
8:48 15 17 mph 1013.9mb 46f 46f
8:42 13 15 mph 1013.9mb 46f 46f
8:36 13 16 mph 1013.8mb 46f 46f
8:30 11 16 mph 1013.8mb 46f 46f
8:24 11 14 mph 1013.7mb 46f 46f
8:18 10 14 mph 1013.6mb 46f 46f
8:12 13 17 mph 1013.4mb 46f 47f
8:06 10 13 mph 1013.3mb 46f 46f
8:00 7 9 mph 1013.2mb 46f 46f
7:54 8 9 mph 1013.1mb 46f 46f
7:48 9 10 mph 1012.9mb 46f 47f
7:42 9 10 mph 1012.7mb 46f 47f
7:36 8 11 mph 1012.5mb 46f 47f
7:30 10 14 mph 1012.4mb 46f 47f
7:24 10 15 mph 1012.2mb 46f 48f
7:18 11 14 mph 1012.1mb 46f 48f
7:12 13 17 mph 1012.1mb 46f 48f
7:06 16 21 mph 1012mb 46f 48f
7:00 15 22 mph 1011.8mb 46f 48f
6:54 16 24 mph 1011.7mb 46f 48f
6:48 20 23 mph 1011.7mb 46f 49f
6:42 21 24 mph 1011.5mb 46f 48f
6:36 20 24 mph 1011.3mb 46f 48f
6:30 17 22 mph 1011.2mb 46f 48f
6:24 18 23 mph 1011.1mb 46f 48f
6:18 18 22 mph 1011.1mb 46f 49f
6:12 15 18 mph 1011mb 46f 48f
6:06 13 17 mph 1010.8mb 46f 48f
6:00 14 16 mph 1010.5mb 46f 48f
5:54 16 21 mph 1010.3mb 46f 48f
5:48 16 22 mph 1010.4mb 46f 49f
5:42 14 18 mph 1010.3mb 46f 49f
5:36 15 18 mph 1010.2mb 46f 49f
5:30 16 22 mph 1010.1mb 46f 49f
5:24 18 26 mph 1009.9mb 46f 49f
5:18 18 22 mph 1009.8mb 46f 49f
5:12 18 22 mph 1009.8mb 46f 49f
5:06 17 25 mph 1009.6mb 46f 49f
5:00 16 22 mph 1009.4mb 46f 49f
4:54 22 28 mph 1009.1mb 46f 49f
4:48 17 21 mph 1009.1mb 46f 49f
4:42 17 20 mph 1009mb 46f 50f
4:36 15 20 mph 1008.9mb 46f 49f
4:30 21 31 mph 1008.8mb 46f 50f
4:24 24 33 mph 1008.7mb 46f 50f
4:18 30 37 mph 1008.6mb 46f 50f
4:12 24 30 mph 1008.4mb 46f 50f
4:06 26 31 mph 1008.4mb 46f 51f
4:00 23 31 mph 1008.2mb 46f 51f
3:54 22 29 mph 1008.1mb 46f 51f
3:48 21 29 mph 1007.8mb 46f 51f
3:42 16 28 mph 1007.5mb 46f 51f
3:36 18 21 mph 1007.4mb 46f 51f
3:30 20 23 mph 1007.3mb 46f 51f
3:24 17 22 mph 1007.2mb 46f 51f
3:18 20 24 mph 1007mb 46f 50f
3:12 20 24 mph 1006.9mb 46f 51f
3:06 21 24 mph 1006.8mb 46f 51f
2:42 29 33 mph 1005.9mb 46f 51f
2:18 15 22 mph 1005.1mb 46f 51f
2:12 23 30 mph 1005mb 46f 51f
2:06 25 28 mph 1004.7mb 46f 51f
2:00 28 32 mph 1004.7mb 46f 51f
1:54 22 25 mph 1004.7mb 46f 52f
1:48 22 26 mph 1004.4mb 46f 52f
1:42 22 25 mph 1004.2mb 46f 52f
1:36 20 24 mph 1004.1mb 46f 52f
1:30 17 22 mph 1003.9mb 46f 52f
1:24 22 24 mph 1003.9mb 46f 52f
1:18 18 22 mph 1003.9mb 46f 53f
1:12 15 23 mph 1003.7mb 46f 52f
1:06 20 24 mph 1003.7mb 46f 52f
1:00 22 25 mph 1003.5mb 46f 52f
12:54 21 26 mph 1003.2mb 46f 52f
12:48 22 25 mph 1003mb 46f 52f
12:42 15 18 mph 1002.9mb 46f 52f
12:36 18 21 mph 1003mb 46f 52f
12:30 20 26 mph 1002.8mb 46f 52f
12:24 24 29 mph 1002.8mb 46f 52f
12:18 17 22 mph 1002.8mb 46f 52f
12:12 22 26 mph 1002.5mb 46f 52f
12:06 18 24 mph 1002.4mb 46f 52f
12:00 18 30 mph 1002.7mb 46f 52f
11:54 21 26 mph 1002.5mb 46f 52f
11:48 21 25 mph 1002.4mb 46f 52f
11:42 18 29 mph 1002.5mb 46f 51f
11:36 22 26 mph 1002.5mb 46f 52f
11:30 17 23 mph 1002.5mb 45f 51f
11:24 16 21 mph 1002.6mb 45f 52f
11:18 18 23 mph 1002.8mb 45f 52f
11:12 15 23 mph 1002.7mb 45f 52f
11:06 18 23 mph 1002.7mb 45f 51f
11:00 18 26 mph 1003mb 45f 52f
10:54 21 24 mph 1002.9mb 45f 52f
10:48 16 29 mph 1002.6mb 45f 52f
10:42 22 29 mph 1002.9mb 45f 53f
10:36 20 30 mph 1002.4mb 45f 53f
10:30 23 31 mph 1002.7mb 45f 53f
10:24 25 31 mph 1002.9mb 45f 53f
10:18 23 30 mph 1002.8mb 45f 54f
10:12 16 23 mph 1002.3mb 45f 54f
10:06 11 15 mph 1002.3mb 45f 53f
10:00 13 17 mph 1001.9mb 45f 53f
9:54 11 14 mph 1001.1mb 45f 54f
9:48 15 22 mph 1001.4mb 45f 54f
9:42 14 20 mph 1001.4mb 45f 54f
9:36 18 24 mph 1001.6mb 45f 54f
9:30 23 30 mph 1001.9mb 45f 54f
9:24 18 21 mph 1002mb 45f 53f
9:18 16 23 mph 1000.6mb 45f 51f
9:12 22 24 mph 1000.8mb 45f 51f
9:06 22 25 mph 1000.1mb 45f 51f
9:00 21 23 mph 1000.4mb 45f 50f
8:54 17 21 mph 1000.6mb 45f 50f
8:48 16 18 mph 1000.4mb 45f 50f
8:42 18 21 mph 1000.2mb 45f 50f
8:36 17 18 mph 1000.4mb 45f 50f
8:30 17 18 mph 1000.3mb 45f 50f
8:24 17 18 mph 1000.3mb 45f 50f
8:18 18 20 mph 1000mb 45f 51f
8:12 18 20 mph 999.9mb 45f 52f
8:06 17 20 mph 999.9mb 45f 52f
8:00 16 22 mph 999.9mb 45f 52f
7:54 21 23 mph 999.9mb 45f 52f
7:48 22 24 mph 1000mb 45f 52f
7:42 25
mph
1000mb 45f 53f
7:36 23
mph
1000.1mb 45f 52f
7:30 22
mph
1000mb 45f 52f
7:24 21
mph
1000.3mb 45f 52f
7:18 18 20 mph 1000.3mb 45f 52f
7:12 17
mph
1000.1mb 45f 52f
7:06 16 18 mph 1000mb 45f 51f
7:00 14 15 mph 1000.1mb 45f 52f
6:54 11 13 mph 1000.2mb 45f 53f
6:48 9 11 mph 1000.6mb 45f 54f
6:42 9 13 mph 1000.6mb 45f 56f
6:36 8 13 mph 1000.7mb 45f 53f
6:30 14 16 mph 1000.9mb 45f 52f
6:24 16 20 mph 1000.7mb 45f 51f
6:18 18 21 mph 1000.6mb 45f 51f
6:12 18 20 mph 1000.2mb 45f 52f
6:06 17 20 mph 1000mb 45f 51f
6:00 20 23 mph 1000.1mb 45f 51f
5:54 23 25 mph 999.7mb 45f 52f
5:48 23 24 mph 998.9mb 45f 52f
5:42 15 21 mph 999.5mb 45f 51f
5:36 20 22 mph 999.6mb 45f 51f
5:30 17 22 mph 999.6mb 45f 50f
5:24 22 23 mph 999.5mb 45f 52f
5:18 20 23 mph 999.5mb 45f 52f
5:12 21 22 mph 999.5mb 45f 51f
5:06 21 22 mph 999.7mb 45f 52f
5:00 22 25 mph 999.4mb 45f 53f
4:54 16 21 mph 999.4mb 45f 51f
4:48 20 21 mph 999.3mb 45f 51f
4:42 20 21 mph 999.1mb 45f 52f
4:36 18 20 mph 998.9mb 45f 52f
4:30 15 17 mph 999.1mb 45f 52f
4:24 16 18 mph 999.3mb 45f 53f
4:18 16 20 mph 999.2mb 45f 52f
4:12 17 18 mph 999.6mb 45f 53f
4:06 17 22 mph 999.6mb 45f 53f
4:00 18 22 mph 999.7mb 45f 57f
3:54 20 23 mph 1000.1mb 45f 57f
3:48 18 25 mph 1000mb 45f 57f
3:42 22 26 mph 1000.1mb 45f 58f
3:36 23 29 mph 1000.2mb 45f 58f
3:30 23 28 mph 1000.4mb 45f 58f
3:24 22 28 mph 1000.5mb 45f 58f
3:18 25 30 mph 1000.6mb 45f 58f
3:12 23 29 mph 1000.6mb 45f 56f
3:06 22 25 mph 1000.7mb 45f 55f
3:00 22 26 mph 1000.8mb 45f 55f
2:54 22 28 mph 1000.7mb 45f 54f
2:48 21 22 mph 1000.8mb 45f 54f
2:42 23 24 mph 1000.7mb 45f 55f
2:36 22 24 mph 1000.7mb 45f 54f
2:30 17 22 mph 1000.9mb 45f 54f
2:24 17 20 mph 1001mb 45f 54f
2:18 20 21 mph 1001.3mb 45f 53f
2:12 20 21 mph 1001.2mb 45f 54f
2:06 20 21 mph 1001.1mb 45f 54f
2:00 21 23 mph 1001.1mb 45f 53f
1:54 22
mph
1001mb 45f 54f
1:48 20 21 mph 1001.2mb 45f 53f
1:42 20 22 mph 1001.3mb 45f 53f
1:36 20 21 mph 1001.3mb 45f 53f
1:30 18 21 mph 1001.1mb 45f 53f
1:24 18 20 mph 1001mb 45f 54f
1:18 17 21 mph 1001mb 45f 54f